createdAt,value
2023-11-26T00:02:46.238Z,4.40
2023-11-26T00:05:13.133Z,5.90
2023-11-26T00:07:39.953Z,5.80
2023-11-26T00:10:07.466Z,5.90
2023-11-26T00:12:34.070Z,4.50
2023-11-26T00:15:00.995Z,6.00
2023-11-26T00:17:28.113Z,6.10
2023-11-26T00:19:55.939Z,5.80
2023-11-26T00:22:23.905Z,6.80
2023-11-26T00:24:50.507Z,6.30
2023-11-26T00:27:17.114Z,6.20
2023-11-26T00:29:43.872Z,5.90
2023-11-26T00:32:10.882Z,6.20
2023-11-26T00:34:37.647Z,6.00
2023-11-26T00:37:04.908Z,6.00
2023-11-26T00:39:31.597Z,6.60
2023-11-26T00:41:58.276Z,6.70
2023-11-26T00:44:27.482Z,6.50
2023-11-26T00:46:54.642Z,5.50
2023-11-26T00:49:21.935Z,6.10
2023-11-26T00:51:48.720Z,4.90
2023-11-26T00:54:15.397Z,6.00
2023-11-26T00:56:42.014Z,5.90
2023-11-26T00:59:08.740Z,6.50
2023-11-26T01:01:35.520Z,5.80
2023-11-26T01:04:02.359Z,6.20
2023-11-26T01:06:29.027Z,6.70
2023-11-26T01:08:55.637Z,5.80
2023-11-26T01:11:22.346Z,5.70
2023-11-26T01:13:49.083Z,6.50
2023-11-26T01:16:15.715Z,6.50
2023-11-26T01:18:42.405Z,6.50
2023-11-26T01:21:09.032Z,6.50
2023-11-26T01:23:36.693Z,6.40
2023-11-26T01:26:03.550Z,6.40
2023-11-26T01:28:30.175Z,6.00
2023-11-26T01:30:56.795Z,5.60
2023-11-26T01:33:24.452Z,6.80
2023-11-26T01:35:51.108Z,6.40
2023-11-26T01:38:17.817Z,6.30
2023-11-26T01:40:44.482Z,6.40
2023-11-26T01:43:11.108Z,5.70
2023-11-26T01:45:37.720Z,6.00
2023-11-26T01:48:06.097Z,5.90
2023-11-26T01:50:33.354Z,6.40
2023-11-26T01:53:01.222Z,5.80
2023-11-26T01:55:27.988Z,6.70
2023-11-26T01:57:54.794Z,6.40
2023-11-26T02:00:22.994Z,6.10
2023-11-26T02:02:50.483Z,6.40
2023-11-26T02:05:17.827Z,7.00
2023-11-26T02:07:44.628Z,5.90
2023-11-26T02:10:12.835Z,5.70
2023-11-26T02:12:39.587Z,5.70
2023-11-26T02:15:07.595Z,6.50
2023-11-26T02:17:34.397Z,6.10
2023-11-26T02:20:05.825Z,5.90
2023-11-26T02:24:59.416Z,5.40
2023-11-26T02:27:26.277Z,5.60
2023-11-26T02:29:53.023Z,5.40
2023-11-26T02:32:19.742Z,5.00
2023-11-26T02:34:46.448Z,5.00
2023-11-26T02:37:13.161Z,5.60
2023-11-26T02:39:39.829Z,5.60
2023-11-26T02:42:06.802Z,5.30
2023-11-26T02:44:33.471Z,5.90
2023-11-26T02:47:01.410Z,6.10
2023-11-26T02:49:28.190Z,6.00
2023-11-26T02:51:54.885Z,6.40
2023-11-26T02:54:21.663Z,5.70
2023-11-26T02:56:48.402Z,5.20
2023-11-26T02:59:15.064Z,4.80
2023-11-26T03:01:41.829Z,6.20
2023-11-26T03:04:10.293Z,4.90
2023-11-26T03:06:37.755Z,4.80
2023-11-26T03:09:33.741Z,4.90
2023-11-26T03:12:19.864Z,4.40
2023-11-26T03:14:46.721Z,4.20
2023-11-26T03:17:16.614Z,4.80
2023-11-26T03:19:46.427Z,4.80
2023-11-26T03:22:13.155Z,4.70
2023-11-26T03:24:39.807Z,4.70
2023-11-26T03:27:06.465Z,5.40
2023-11-26T03:29:33.084Z,4.70
2023-11-26T03:31:59.780Z,4.60
2023-11-26T03:34:29.700Z,4.90
2023-11-26T03:36:58.059Z,5.30
2023-11-26T03:39:25.952Z,4.50
2023-11-26T03:41:52.656Z,4.90
2023-11-26T03:44:19.309Z,5.20
2023-11-26T03:46:53.106Z,4.80
2023-11-26T03:49:19.891Z,4.40
2023-11-26T03:51:46.620Z,4.90
2023-11-26T03:54:13.258Z,4.10
2023-11-26T03:56:40.708Z,4.90
2023-11-26T03:59:07.500Z,4.30
2023-11-26T04:01:34.272Z,4.10
2023-11-26T04:04:01.140Z,4.70
2023-11-26T04:06:27.752Z,4.20
2023-11-26T04:08:55.279Z,4.40
2023-11-26T04:11:22.374Z,4.60
2023-11-26T04:13:49.018Z,4.60
2023-11-26T04:16:19.846Z,4.50
2023-11-26T04:18:46.903Z,4.30
2023-11-26T04:21:13.620Z,4.20
2023-11-26T04:23:40.449Z,3.80
2023-11-26T04:26:08.056Z,3.90
2023-11-26T04:28:36.065Z,4.20
2023-11-26T04:31:03.766Z,5.20
2023-11-26T04:33:30.504Z,5.10
2023-11-26T04:35:57.157Z,6.00
2023-11-26T04:38:23.884Z,5.80
2023-11-26T04:40:51.381Z,4.80
2023-11-26T04:43:18.028Z,6.00
2023-11-26T04:45:44.660Z,5.90
2023-11-26T04:48:11.314Z,4.80
2023-11-26T04:50:38.022Z,6.10
2023-11-26T04:53:06.569Z,7.20
2023-11-26T04:55:33.306Z,6.30
2023-11-26T04:57:59.922Z,5.20
2023-11-26T05:00:26.514Z,4.70
2023-11-26T05:02:54.525Z,6.60
2023-11-26T05:05:21.484Z,5.30
2023-11-26T05:07:48.124Z,6.80
2023-11-26T05:10:14.869Z,5.70
2023-11-26T05:12:41.611Z,6.50
2023-11-26T05:15:08.476Z,6.10
2023-11-26T05:17:35.158Z,6.80
2023-11-26T05:20:01.933Z,7.00
2023-11-26T05:22:28.572Z,7.10
2023-11-26T05:24:55.164Z,7.60
2023-11-26T05:27:23.053Z,6.70
2023-11-26T05:29:49.765Z,6.50
2023-11-26T05:32:16.411Z,6.30
2023-11-26T05:34:43.073Z,7.40
2023-11-26T05:37:09.737Z,7.40
2023-11-26T05:39:36.329Z,7.40
2023-11-26T05:42:02.931Z,7.70
2023-11-26T05:44:29.567Z,7.00
2023-11-26T05:46:56.335Z,6.10
2023-11-26T05:49:23.120Z,6.40
2023-11-26T05:51:49.830Z,5.60
2023-11-26T05:54:16.423Z,4.90
2023-11-26T05:56:46.160Z,5.50
2023-11-26T05:59:12.833Z,4.70
2023-11-26T06:01:39.749Z,4.50
2023-11-26T06:04:07.962Z,4.20
2023-11-26T06:06:34.857Z,4.20
2023-11-26T06:09:01.626Z,5.00
2023-11-26T06:11:28.241Z,4.40
2023-11-26T06:13:54.964Z,4.40
2023-11-26T06:16:21.704Z,5.00
2023-11-26T06:18:48.426Z,4.60
2023-11-26T06:21:17.021Z,4.60
2023-11-26T06:23:43.651Z,4.20
2023-11-26T06:26:10.405Z,4.00
2023-11-26T06:28:37.600Z,4.90
2023-11-26T06:31:04.865Z,4.50
2023-11-26T06:33:31.763Z,4.50
2023-11-26T06:35:58.386Z,3.60
2023-11-26T06:38:25.726Z,4.40
2023-11-26T06:40:52.408Z,4.00
2023-11-26T06:43:19.011Z,3.70
2023-11-26T06:45:45.661Z,3.80
2023-11-26T06:48:12.486Z,3.40
2023-11-26T06:50:39.102Z,3.60
2023-11-26T06:53:06.395Z,3.70
2023-11-26T06:55:32.992Z,3.90
2023-11-26T06:57:59.631Z,3.60
2023-11-26T07:00:27.681Z,3.70
2023-11-26T07:02:54.345Z,4.10
2023-11-26T07:05:21.062Z,3.90
2023-11-26T07:07:47.769Z,3.50
2023-11-26T07:10:14.435Z,4.00
2023-11-26T07:12:41.142Z,4.00
2023-11-26T07:15:08.478Z,4.10
2023-11-26T07:17:35.214Z,4.90
2023-11-26T07:20:01.886Z,3.80
2023-11-26T07:22:28.534Z,4.30
2023-11-26T07:24:55.144Z,3.70
2023-11-26T07:27:22.235Z,4.30
2023-11-26T07:29:48.890Z,4.30
2023-11-26T07:32:15.473Z,4.20
2023-11-26T07:34:43.594Z,3.90
2023-11-26T07:37:10.251Z,4.60
2023-11-26T07:39:38.165Z,4.70
2023-11-26T07:42:09.101Z,3.90
2023-11-26T07:44:35.958Z,4.40
2023-11-26T07:47:03.555Z,4.40
2023-11-26T07:49:32.630Z,3.80
2023-11-26T07:51:59.357Z,3.60
2023-11-26T07:54:26.257Z,3.30
2023-11-26T07:56:53.040Z,4.60
2023-11-26T07:59:19.752Z,4.20
2023-11-26T08:01:53.987Z,3.60
2023-11-26T08:04:20.972Z,3.60
2023-11-26T08:06:51.423Z,3.10
2023-11-26T08:09:18.715Z,2.90
2023-11-26T08:11:47.612Z,3.40
2023-11-26T08:14:14.585Z,3.60
2023-11-26T08:16:41.857Z,5.10
2023-11-26T08:19:17.877Z,8.00
2023-11-26T08:21:45.525Z,4.10
2023-11-26T08:24:17.134Z,4.00
2023-11-26T08:29:14.626Z,3.60
2023-11-26T08:31:42.259Z,4.30
2023-11-26T08:34:09.335Z,3.70
2023-11-26T08:36:43.424Z,5.00
2023-11-26T08:39:21.253Z,5.00
2023-11-26T08:41:48.305Z,5.10
2023-11-26T08:44:15.682Z,5.40
2023-11-26T08:46:42.951Z,5.50
2023-11-26T08:49:10.458Z,6.20
2023-11-26T08:51:37.826Z,6.40
2023-11-26T08:54:04.594Z,6.80
2023-11-26T08:56:31.546Z,8.00
2023-11-26T08:58:58.259Z,8.10
2023-11-26T09:01:25.675Z,7.60
2023-11-26T09:03:52.672Z,8.40
2023-11-26T09:06:22.177Z,10.80
2023-11-26T09:08:51.734Z,8.70
2023-11-26T09:11:19.868Z,7.40
2023-11-26T09:13:47.859Z,7.90
2023-11-26T09:16:14.741Z,6.60
2023-11-26T09:18:41.985Z,6.80
2023-11-26T09:21:08.681Z,8.60
2023-11-26T09:23:35.937Z,7.80
2023-11-26T09:26:02.760Z,8.60
2023-11-26T09:28:31.321Z,9.10
2023-11-26T09:30:58.084Z,8.30
2023-11-26T09:33:26.104Z,8.80
2023-11-26T09:35:52.796Z,6.90
2023-11-26T09:38:19.541Z,6.30
2023-11-26T09:40:46.294Z,6.60
2023-11-26T09:43:14.907Z,7.90
2023-11-26T09:45:41.557Z,6.80
2023-11-26T09:48:10.910Z,8.40
2023-11-26T09:50:37.782Z,7.30
2023-11-26T09:53:05.646Z,7.80
2023-11-26T09:55:41.724Z,9.00
2023-11-26T09:58:08.428Z,7.70
2023-11-26T10:00:35.144Z,5.90
2023-11-26T10:03:04.282Z,6.50
2023-11-26T10:05:33.935Z,6.70
2023-11-26T10:08:02.246Z,7.30
2023-11-26T10:10:29.788Z,7.00
2023-11-26T10:12:59.356Z,6.20
2023-11-26T10:15:28.198Z,5.50
2023-11-26T10:18:06.492Z,5.30
2023-11-26T10:20:35.540Z,5.10
2023-11-26T10:23:03.605Z,5.40
2023-11-26T10:25:30.401Z,5.20
2023-11-26T10:27:57.441Z,4.30
2023-11-26T10:30:25.722Z,4.30
2023-11-26T10:32:59.711Z,5.00
2023-11-26T10:35:27.137Z,5.30
2023-11-26T10:38:09.697Z,4.40
2023-11-26T10:40:37.211Z,3.90
2023-11-26T10:43:09.436Z,4.00
2023-11-26T10:45:36.927Z,3.80
2023-11-26T10:48:10.466Z,3.90
2023-11-26T10:50:54.409Z,4.50
2023-11-26T10:53:35.609Z,4.70
2023-11-26T10:56:05.536Z,5.00
2023-11-26T10:58:40.783Z,5.30
2023-11-26T11:01:09.057Z,4.50
2023-11-26T11:03:36.074Z,4.60
2023-11-26T11:06:03.983Z,5.60
2023-11-26T11:08:31.650Z,4.60
2023-11-26T11:11:39.935Z,4.40
2023-11-26T11:14:07.791Z,4.90
2023-11-26T11:16:34.895Z,4.70
2023-11-26T11:19:01.660Z,4.80
2023-11-26T11:21:28.600Z,5.60
2023-11-26T11:23:56.465Z,5.60
2023-11-26T11:26:24.718Z,6.10
2023-11-26T11:28:54.753Z,6.10
2023-11-26T11:31:49.679Z,7.40
2023-11-26T11:34:16.306Z,7.20
2023-11-26T11:36:45.876Z,6.30
2023-11-26T11:39:16.259Z,6.00
2023-11-26T11:42:06.020Z,6.40
2023-11-26T11:44:42.012Z,4.60
2023-11-26T11:47:10.236Z,4.80
2023-11-26T11:49:46.041Z,6.10
2023-11-26T11:52:13.454Z,7.20
2023-11-26T11:54:53.200Z,7.20
2023-11-26T11:57:24.983Z,7.00
2023-11-26T12:02:41.649Z,7.10
2023-11-26T12:05:28.675Z,5.90
2023-11-26T12:07:59.457Z,7.10
2023-11-26T12:10:34.273Z,6.90
2023-11-26T12:13:09.889Z,8.10
2023-11-26T12:15:41.471Z,5.60
2023-11-26T12:18:08.555Z,5.30
2023-11-26T12:20:35.617Z,5.30
2023-11-26T12:23:04.605Z,4.90
2023-11-26T12:25:32.132Z,5.70
2023-11-26T12:28:06.342Z,5.10
2023-11-26T12:30:39.573Z,5.90
2023-11-26T12:33:08.964Z,5.30
2023-11-26T12:35:38.370Z,5.10
2023-11-26T12:38:08.034Z,6.50
2023-11-26T12:40:37.117Z,7.20
2023-11-26T12:43:04.138Z,6.50
2023-11-26T12:45:30.800Z,5.70
2023-11-26T12:47:57.856Z,6.60
2023-11-26T12:50:26.054Z,4.10
2023-11-26T12:52:53.350Z,4.80
2023-11-26T12:55:20.616Z,5.40
2023-11-26T12:57:47.875Z,5.00
2023-11-26T13:00:15.944Z,4.60
2023-11-26T13:02:47.599Z,4.10
2023-11-26T13:07:59.012Z,4.60
2023-11-26T13:10:56.958Z,6.30
2023-11-26T13:13:30.786Z,5.90
2023-11-26T13:16:13.832Z,5.80
2023-11-26T13:18:41.105Z,5.60
2023-11-26T13:21:08.345Z,4.40
2023-11-26T13:23:35.049Z,4.20
2023-11-26T13:26:02.707Z,5.00
2023-11-26T13:28:31.111Z,5.00
2023-11-26T13:31:00.590Z,5.70
2023-11-26T13:33:27.703Z,5.00
2023-11-26T13:35:57.135Z,6.10
2023-11-26T13:38:23.838Z,7.00
2023-11-26T13:40:52.292Z,4.80
2023-11-26T13:43:19.912Z,5.50
2023-11-26T13:45:46.980Z,5.30
2023-11-26T13:48:14.092Z,6.10
2023-11-26T13:50:41.427Z,5.60
2023-11-26T13:53:10.893Z,5.80
2023-11-26T14:02:09.337Z,8.70
2023-11-26T14:04:36.198Z,8.70
2023-11-26T14:07:03.068Z,6.40
2023-11-26T14:09:29.860Z,7.50
2023-11-26T14:11:56.483Z,6.60
2023-11-26T14:14:23.177Z,6.00
2023-11-26T14:16:49.943Z,8.00
2023-11-26T14:19:17.844Z,5.40
2023-11-26T14:21:44.504Z,7.20
2023-11-26T14:24:11.273Z,7.00
2023-11-26T14:26:37.876Z,7.80
2023-11-26T14:29:04.641Z,7.90
2023-11-26T14:31:31.289Z,8.20
2023-11-26T14:33:57.955Z,5.30
2023-11-26T14:36:26.784Z,7.90
2023-11-26T14:38:53.562Z,8.90
2023-11-26T14:41:20.286Z,6.10
2023-11-26T14:43:47.021Z,5.00
2023-11-26T14:46:21.658Z,5.10
2023-11-26T14:48:48.372Z,5.70
2023-11-26T14:51:15.099Z,5.60
2023-11-26T14:53:42.138Z,5.70
2023-11-26T14:56:09.506Z,4.30
2023-11-26T14:58:37.335Z,5.70
2023-11-26T15:01:04.177Z,5.60
2023-11-26T15:03:33.118Z,5.80
2023-11-26T15:05:59.963Z,4.40
2023-11-26T15:08:26.605Z,5.70
2023-11-26T15:10:54.322Z,4.80
2023-11-26T15:13:21.041Z,4.30
2023-11-26T15:15:47.860Z,4.90
2023-11-26T15:18:14.679Z,3.90
2023-11-26T15:20:41.374Z,4.20
2023-11-26T15:23:10.738Z,4.10
2023-11-26T15:25:40.793Z,3.80
2023-11-26T15:28:08.462Z,3.70
2023-11-26T15:30:35.230Z,4.20
2023-11-26T15:33:01.904Z,5.50
2023-11-26T15:35:29.114Z,3.80
2023-11-26T15:37:55.824Z,4.20
2023-11-26T15:40:22.458Z,3.50
2023-11-26T15:42:52.459Z,4.20
2023-11-26T15:45:19.295Z,4.60
2023-11-26T15:47:46.026Z,4.90
2023-11-26T15:50:13.038Z,4.50
2023-11-26T15:52:39.836Z,4.40
2023-11-26T15:55:09.895Z,4.30
2023-11-26T15:57:36.946Z,4.70
2023-11-26T16:00:06.507Z,6.30
2023-11-26T16:02:33.237Z,5.10
2023-11-26T16:05:01.308Z,5.70
2023-11-26T16:07:28.372Z,5.20
2023-11-26T16:09:55.034Z,5.30
2023-11-26T16:12:21.712Z,3.90
2023-11-26T16:14:48.324Z,4.50
2023-11-26T16:17:26.393Z,4.30
2023-11-26T16:19:56.915Z,5.30
2023-11-26T16:22:24.160Z,5.40
2023-11-26T16:24:50.883Z,3.80
2023-11-26T16:27:17.488Z,5.60
2023-11-26T16:29:44.322Z,5.00
2023-11-26T16:32:10.999Z,5.60
2023-11-26T16:34:38.459Z,6.20
2023-11-26T16:37:05.142Z,5.80
2023-11-26T16:39:33.097Z,7.30
2023-11-26T16:42:00.245Z,6.10
2023-11-26T16:45:16.714Z,5.50
2023-11-26T16:47:54.881Z,5.10
2023-11-26T16:50:21.916Z,5.40
2023-11-26T16:52:57.272Z,5.90
2023-11-26T16:55:40.288Z,5.80
2023-11-26T16:58:06.985Z,5.70
2023-11-26T17:00:33.806Z,5.80
2023-11-26T17:03:05.860Z,5.90
2023-11-26T17:05:34.636Z,5.70
2023-11-26T17:08:02.017Z,6.90
2023-11-26T17:10:28.749Z,7.50
2023-11-26T17:12:57.407Z,8.70
2023-11-26T17:15:25.594Z,7.60
2023-11-26T17:17:52.409Z,7.30
2023-11-26T17:27:13.287Z,12.80
2023-11-26T17:29:39.934Z,12.50
2023-11-26T17:32:06.958Z,9.90
2023-11-26T17:34:33.863Z,7.90
2023-11-26T17:37:00.601Z,6.70
2023-11-26T17:39:28.209Z,7.90
2023-11-26T17:41:55.365Z,11.80
2023-11-26T17:44:22.099Z,12.70
2023-11-26T17:46:48.796Z,10.20
2023-11-26T17:49:15.554Z,8.80
2023-11-26T17:51:44.215Z,7.60
2023-11-26T17:54:10.799Z,5.90
2023-11-26T17:56:38.749Z,7.80
2023-11-26T17:59:07.174Z,10.80
2023-11-26T18:01:51.723Z,7.00
2023-11-26T18:04:18.570Z,8.60
2023-11-26T18:06:45.314Z,12.80
2023-11-26T18:09:11.913Z,11.60
2023-11-26T18:11:39.024Z,6.10
2023-11-26T18:14:06.703Z,8.80
2023-11-26T18:16:33.884Z,8.70
2023-11-26T18:19:00.642Z,8.40
2023-11-26T18:21:27.475Z,7.90
2023-11-26T18:23:55.523Z,6.90
2023-11-26T18:26:22.226Z,5.70
2023-11-26T18:28:48.925Z,9.70
2023-11-26T18:31:15.699Z,6.90
2023-11-26T18:33:42.455Z,8.20
2023-11-26T18:36:15.450Z,4.50
2023-11-26T18:38:42.202Z,7.40
2023-11-26T18:41:08.845Z,6.30
2023-11-26T18:43:35.512Z,7.60
2023-11-26T18:46:02.178Z,6.60
2023-11-26T18:48:28.819Z,6.40
2023-11-26T18:50:55.428Z,9.10
2023-11-26T18:53:22.202Z,8.40
2023-11-26T18:55:50.469Z,5.50
2023-11-26T18:58:17.156Z,5.70
2023-11-26T19:00:46.260Z,6.80
2023-11-26T19:03:16.576Z,6.20
2023-11-26T19:05:44.247Z,6.60
2023-11-26T19:08:11.234Z,4.10
2023-11-26T19:10:38.107Z,7.10
2023-11-26T19:13:09.840Z,7.40
2023-11-26T19:15:36.566Z,7.00
2023-11-26T19:18:06.567Z,6.70
2023-11-26T19:20:33.471Z,7.10
2023-11-26T19:23:00.224Z,5.40
2023-11-26T19:25:27.207Z,5.40
2023-11-26T19:27:53.960Z,6.50
2023-11-26T19:30:20.861Z,6.50
2023-11-26T19:32:49.882Z,5.20
2023-11-26T19:35:16.654Z,6.60
2023-11-26T19:37:43.289Z,6.70
2023-11-26T19:40:11.673Z,7.30
2023-11-26T19:42:38.302Z,6.60
2023-11-26T19:45:05.499Z,7.30
2023-11-26T19:47:32.169Z,5.50
2023-11-26T19:49:58.829Z,5.60
2023-11-26T19:52:25.615Z,6.40
2023-11-26T19:54:52.263Z,5.90
2023-11-26T19:57:19.006Z,7.00
2023-11-26T19:59:45.736Z,7.70
2023-11-26T20:02:12.593Z,8.00
2023-11-26T20:04:39.338Z,6.90
2023-11-26T20:07:05.979Z,6.00
2023-11-26T20:09:32.661Z,6.40
2023-11-26T20:11:59.242Z,6.40
2023-11-26T20:14:25.861Z,6.00
2023-11-26T20:16:54.358Z,6.50
2023-11-26T20:19:21.149Z,5.70
2023-11-26T20:21:47.834Z,7.00
2023-11-26T20:24:17.853Z,7.40
2023-11-26T20:26:44.914Z,7.20
2023-11-26T20:29:11.672Z,6.50
2023-11-26T20:31:38.449Z,5.90
2023-11-26T20:34:07.919Z,7.00
2023-11-26T20:36:35.019Z,5.70
2023-11-26T20:39:02.029Z,5.70
2023-11-26T20:41:30.435Z,5.60
2023-11-26T20:43:58.269Z,5.70
2023-11-26T20:46:25.255Z,7.00
2023-11-26T20:48:52.132Z,6.10
2023-11-26T20:51:26.656Z,5.50
2023-11-26T20:53:56.547Z,6.00
2023-11-26T20:56:28.033Z,5.70
2023-11-26T20:58:56.368Z,6.30
2023-11-26T21:01:23.957Z,5.30
2023-11-26T21:03:50.893Z,5.30
2023-11-26T21:06:18.146Z,5.00
2023-11-26T21:08:45.170Z,4.70
2023-11-26T21:11:13.733Z,6.40
2023-11-26T21:13:40.844Z,4.70
2023-11-26T21:16:07.932Z,5.60
2023-11-26T21:18:35.080Z,6.30
2023-11-26T21:21:02.044Z,5.20
2023-11-26T21:23:28.983Z,6.50
2023-11-26T21:25:55.818Z,5.60
2023-11-26T21:28:22.716Z,5.40
2023-11-26T21:30:49.547Z,6.20
2023-11-26T21:33:19.140Z,5.20
2023-11-26T21:35:46.112Z,7.00
2023-11-26T21:38:12.711Z,6.20
2023-11-26T21:40:45.472Z,6.80
2023-11-26T21:43:16.843Z,5.00
2023-11-26T21:45:43.815Z,6.60
2023-11-26T21:48:20.488Z,8.00
2023-11-26T21:50:47.433Z,6.90
2023-11-26T21:53:14.234Z,6.50
2023-11-26T21:55:40.935Z,6.90
2023-11-26T21:58:07.669Z,7.20
2023-11-26T22:00:34.711Z,6.90
2023-11-26T22:03:03.479Z,8.40
2023-11-26T22:05:30.153Z,7.80
2023-11-26T22:07:56.855Z,6.40
2023-11-26T22:10:23.518Z,6.80
2023-11-26T22:12:50.653Z,7.60
2023-11-26T22:15:17.579Z,6.60
2023-11-26T22:17:44.301Z,6.20
2023-11-26T22:20:12.386Z,6.60
2023-11-26T22:22:40.690Z,5.60
2023-11-26T22:25:09.055Z,5.50
2023-11-26T22:27:35.738Z,7.00
2023-11-26T22:30:02.347Z,7.00
2023-11-26T22:32:29.000Z,6.90
2023-11-26T22:34:55.654Z,5.20
2023-11-26T22:37:22.318Z,5.60
2023-11-26T22:39:49.033Z,5.10
2023-11-26T22:42:15.765Z,5.20
2023-11-26T22:44:42.390Z,5.80
2023-11-26T22:47:11.612Z,5.90
2023-11-26T22:49:38.244Z,6.20
2023-11-26T22:52:05.695Z,6.40
2023-11-26T22:54:32.320Z,6.30
2023-11-26T22:56:59.040Z,5.70
2023-11-26T22:59:25.674Z,7.00
2023-11-26T23:01:52.433Z,7.10
2023-11-26T23:04:19.687Z,7.50
2023-11-26T23:06:46.404Z,7.00
2023-11-26T23:09:13.010Z,6.80
2023-11-26T23:11:39.753Z,7.30
2023-11-26T23:14:08.985Z,7.70
2023-11-26T23:16:35.864Z,6.70
2023-11-26T23:19:02.490Z,5.60
2023-11-26T23:21:29.125Z,7.00
2023-11-26T23:23:55.799Z,7.00
2023-11-26T23:26:22.897Z,6.60
2023-11-26T23:28:50.596Z,7.60
2023-11-26T23:31:18.797Z,8.10
2023-11-26T23:33:46.907Z,8.50
2023-11-26T23:36:14.566Z,5.80
2023-11-26T23:38:41.540Z,4.90
2023-11-26T23:41:11.674Z,5.60
2023-11-26T23:43:39.873Z,5.60
2023-11-26T23:46:07.518Z,6.10
2023-11-26T23:48:34.498Z,5.60
2023-11-26T23:51:01.112Z,5.00
2023-11-26T23:53:27.725Z,5.30
2023-11-26T23:55:54.325Z,5.40
2023-11-26T23:58:21.460Z,5.80
